sensor_id;sensor_type;location;lat;lon;timestamp;temperature;humidity
41481;DHT22;27217;51.220;5.308;2023-04-03T00:02:58;3.70;99.90
41481;DHT22;27217;51.220;5.308;2023-04-03T00:06:05;3.70;99.90
41481;DHT22;27217;51.220;5.308;2023-04-03T00:09:10;3.70;99.90
41481;DHT22;27217;51.220;5.308;2023-04-03T00:12:16;3.80;99.90
41481;DHT22;27217;51.220;5.308;2023-04-03T00:15:21;3.80;99.90
41481;DHT22;27217;51.220;5.308;2023-04-03T00:18:27;3.80;99.90
41481;DHT22;27217;51.220;5.308;2023-04-03T00:21:33;3.90;99.90
41481;DHT22;27217;51.220;5.308;2023-04-03T00:24:39;3.80;99.90
41481;DHT22;27217;51.220;5.308;2023-04-03T00:27:48;3.80;99.90
41481;DHT22;27217;51.220;5.308;2023-04-03T00:30:53;3.40;99.90
41481;DHT22;27217;51.220;5.308;2023-04-03T00:33:58;3.70;99.90
41481;DHT22;27217;51.220;5.308;2023-04-03T00:37:05;3.70;99.90
41481;DHT22;27217;51.220;5.308;2023-04-03T00:40:10;3.20;99.90
41481;DHT22;27217;51.220;5.308;2023-04-03T00:43:20;3.20;99.90
41481;DHT22;27217;51.220;5.308;2023-04-03T00:46:24;3.30;99.90
41481;DHT22;27217;51.220;5.308;2023-04-03T00:49:30;3.20;99.90
41481;DHT22;27217;51.220;5.308;2023-04-03T00:52:36;3.10;99.90
41481;DHT22;27217;51.220;5.308;2023-04-03T00:55:42;3.10;99.90
41481;DHT22;27217;51.220;5.308;2023-04-03T00:58:58;3.60;99.90
41481;DHT22;27217;51.220;5.308;2023-04-03T01:01:59;3.00;99.90
41481;DHT22;27217;51.220;5.308;2023-04-03T01:05:05;2.90;99.90
41481;DHT22;27217;51.220;5.308;2023-04-03T01:08:11;2.90;99.90
41481;DHT22;27217;51.220;5.308;2023-04-03T01:11:17;2.80;99.90
41481;DHT22;27217;51.220;5.308;2023-04-03T01:14:22;3.40;99.90
41481;DHT22;27217;51.220;5.308;2023-04-03T01:26:03;2.60;99.90
41481;DHT22;27217;51.220;5.308;2023-04-03T01:29:09;2.60;99.90
41481;DHT22;27217;51.220;5.308;2023-04-03T01:32:14;3.10;99.90
41481;DHT22;27217;51.220;5.308;2023-04-03T01:35:20;2.60;99.90
41481;DHT22;27217;51.220;5.308;2023-04-03T01:38:25;2.50;99.90
41481;DHT22;27217;51.220;5.308;2023-04-03T01:41:31;2.50;99.90
41481;DHT22;27217;51.220;5.308;2023-04-03T01:44:36;2.50;99.90
41481;DHT22;27217;51.220;5.308;2023-04-03T01:47:42;2.50;99.90
41481;DHT22;27217;51.220;5.308;2023-04-03T01:50:47;2.30;99.90
41481;DHT22;27217;51.220;5.308;2023-04-03T01:53:53;2.30;99.90
41481;DHT22;27217;51.220;5.308;2023-04-03T01:56:58;2.40;99.90
41481;DHT22;27217;51.220;5.308;2023-04-03T02:00:04;2.40;99.90
41481;DHT22;27217;51.220;5.308;2023-04-03T02:03:10;2.10;99.90
41481;DHT22;27217;51.220;5.308;2023-04-03T02:06:19;2.20;99.90
41481;DHT22;27217;51.220;5.308;2023-04-03T02:09:22;2.60;99.90
41481;DHT22;27217;51.220;5.308;2023-04-03T02:12:31;2.30;99.90
41481;DHT22;27217;51.220;5.308;2023-04-03T02:15:39;2.30;99.90
41481;DHT22;27217;51.220;5.308;2023-04-03T02:18:45;2.20;99.90
41481;DHT22;27217;51.220;5.308;2023-04-03T02:21:51;2.20;99.90
41481;DHT22;27217;51.220;5.308;2023-04-03T02:24:56;2.90;99.90
41481;DHT22;27217;51.220;5.308;2023-04-03T02:28:03;2.20;99.90
41481;DHT22;27217;51.220;5.308;2023-04-03T02:31:09;2.20;99.90
41481;DHT22;27217;51.220;5.308;2023-04-03T02:34:14;2.20;99.90
41481;DHT22;27217;51.220;5.308;2023-04-03T02:37:20;2.20;99.90
41481;DHT22;27217;51.220;5.308;2023-04-03T02:40:26;2.30;99.90
41481;DHT22;27217;51.220;5.308;2023-04-03T02:43:32;2.20;99.90
41481;DHT22;27217;51.220;5.308;2023-04-03T02:46:37;2.20;99.90
41481;DHT22;27217;51.220;5.308;2023-04-03T02:49:42;2.40;99.90
41481;DHT22;27217;51.220;5.308;2023-04-03T02:52:48;2.40;99.90
41481;DHT22;27217;51.220;5.308;2023-04-03T02:55:53;3.00;99.90
41481;DHT22;27217;51.220;5.308;2023-04-03T02:58:59;2.40;99.90
41481;DHT22;27217;51.220;5.308;2023-04-03T03:02:05;2.30;99.90
41481;DHT22;27217;51.220;5.308;2023-04-03T03:05:10;2.30;99.90
41481;DHT22;27217;51.220;5.308;2023-04-03T03:08:16;2.40;99.90
41481;DHT22;27217;51.220;5.308;2023-04-03T03:11:22;2.30;99.90
41481;DHT22;27217;51.220;5.308;2023-04-03T03:14:28;2.30;99.90
41481;DHT22;27217;51.220;5.308;2023-04-03T03:17:33;2.10;99.90
41481;DHT22;27217;51.220;5.308;2023-04-03T03:20:39;2.00;99.90
41481;DHT22;27217;51.220;5.308;2023-04-03T03:23:44;2.10;99.90
41481;DHT22;27217;51.220;5.308;2023-04-03T03:26:50;2.20;99.90
41481;DHT22;27217;51.220;5.308;2023-04-03T03:29:57;2.60;99.90
41481;DHT22;27217;51.220;5.308;2023-04-03T03:33:02;2.30;99.90
41481;DHT22;27217;51.220;5.308;2023-04-03T03:36:08;2.40;99.90
41481;DHT22;27217;51.220;5.308;2023-04-03T03:39:14;2.10;99.90
41481;DHT22;27217;51.220;5.308;2023-04-03T03:42:19;2.60;99.90
41481;DHT22;27217;51.220;5.308;2023-04-03T03:45:25;2.00;99.90
41481;DHT22;27217;51.220;5.308;2023-04-03T03:48:31;2.40;99.90
41481;DHT22;27217;51.220;5.308;2023-04-03T03:51:37;2.00;99.90
41481;DHT22;27217;51.220;5.308;2023-04-03T03:54:42;2.10;99.90
41481;DHT22;27217;51.220;5.308;2023-04-03T03:57:48;2.10;99.90
41481;DHT22;27217;51.220;5.308;2023-04-03T04:00:53;2.30;99.90
41481;DHT22;27217;51.220;5.308;2023-04-03T04:03:59;1.80;99.90
41481;DHT22;27217;51.220;5.308;2023-04-03T04:07:05;2.50;99.90
41481;DHT22;27217;51.220;5.308;2023-04-03T04:10:13;1.90;99.90
41481;DHT22;27217;51.220;5.308;2023-04-03T04:13:18;2.10;99.90
41481;DHT22;27217;51.220;5.308;2023-04-03T04:16:24;2.60;99.90
41481;DHT22;27217;51.220;5.308;2023-04-03T04:19:30;2.30;99.90
41481;DHT22;27217;51.220;5.308;2023-04-03T04:22:36;2.40;99.90
41481;DHT22;27217;51.220;5.308;2023-04-03T04:25:41;2.50;99.90
41481;DHT22;27217;51.220;5.308;2023-04-03T04:28:47;1.90;99.90
41481;DHT22;27217;51.220;5.308;2023-04-03T04:31:53;1.80;99.90
41481;DHT22;27217;51.220;5.308;2023-04-03T04:34:58;2.50;99.90
41481;DHT22;27217;51.220;5.308;2023-04-03T04:38:04;2.40;99.90
41481;DHT22;27217;51.220;5.308;2023-04-03T04:41:10;1.90;99.90
41481;DHT22;27217;51.220;5.308;2023-04-03T04:44:16;2.40;99.90
41481;DHT22;27217;51.220;5.308;2023-04-03T04:47:22;2.10;99.90
41481;DHT22;27217;51.220;5.308;2023-04-03T04:50:27;1.70;99.90
41481;DHT22;27217;51.220;5.308;2023-04-03T04:53:33;2.30;99.90
41481;DHT22;27217;51.220;5.308;2023-04-03T04:56:38;1.60;99.90
41481;DHT22;27217;51.220;5.308;2023-04-03T04:59:52;2.00;99.90
41481;DHT22;27217;51.220;5.308;2023-04-03T05:02:51;1.60;99.90
41481;DHT22;27217;51.220;5.308;2023-04-03T05:05:56;1.60;99.90
41481;DHT22;27217;51.220;5.308;2023-04-03T05:09:05;1.60;99.90
41481;DHT22;27217;51.220;5.308;2023-04-03T05:12:10;1.60;99.90
41481;DHT22;27217;51.220;5.308;2023-04-03T05:15:16;1.60;99.90
41481;DHT22;27217;51.220;5.308;2023-04-03T05:18:24;1.70;99.90
41481;DHT22;27217;51.220;5.308;2023-04-03T05:21:27;2.20;99.90
41481;DHT22;27217;51.220;5.308;2023-04-03T05:24:33;1.80;99.90
41481;DHT22;27217;51.220;5.308;2023-04-03T05:27:39;1.80;99.90
41481;DHT22;27217;51.220;5.308;2023-04-03T05:30:44;1.90;99.90
41481;DHT22;27217;51.220;5.308;2023-04-03T05:33:50;1.90;99.90
41481;DHT22;27217;51.220;5.308;2023-04-03T05:36:55;2.40;99.90
41481;DHT22;27217;51.220;5.308;2023-04-03T05:40:01;2.20;99.90
41481;DHT22;27217;51.220;5.308;2023-04-03T05:43:06;2.20;99.90
41481;DHT22;27217;51.220;5.308;2023-04-03T05:46:13;2.50;99.90
41481;DHT22;27217;51.220;5.308;2023-04-03T05:49:21;1.90;99.90
41481;DHT22;27217;51.220;5.308;2023-04-03T05:52:28;1.80;99.90
41481;DHT22;27217;51.220;5.308;2023-04-03T05:55:32;2.40;99.90
41481;DHT22;27217;51.220;5.308;2023-04-03T05:58:39;2.30;99.90
41481;DHT22;27217;51.220;5.308;2023-04-03T06:01:44;2.00;99.90
41481;DHT22;27217;51.220;5.308;2023-04-03T06:04:50;2.40;99.90
41481;DHT22;27217;51.220;5.308;2023-04-03T06:07:57;2.00;99.90
41481;DHT22;27217;51.220;5.308;2023-04-03T06:11:03;2.80;99.90
41481;DHT22;27217;51.220;5.308;2023-04-03T06:14:09;2.00;99.90
41481;DHT22;27217;51.220;5.308;2023-04-03T06:17:15;2.60;99.90
41481;DHT22;27217;51.220;5.308;2023-04-03T06:20:20;3.10;99.90
41481;DHT22;27217;51.220;5.308;2023-04-03T06:23:25;2.30;99.90
41481;DHT22;27217;51.220;5.308;2023-04-03T06:26:32;2.30;99.90
41481;DHT22;27217;51.220;5.308;2023-04-03T06:29:37;2.30;99.90
41481;DHT22;27217;51.220;5.308;2023-04-03T06:32:43;2.80;99.90
41481;DHT22;27217;51.220;5.308;2023-04-03T06:35:55;2.40;99.90
41481;DHT22;27217;51.220;5.308;2023-04-03T06:38:57;2.80;99.90
41481;DHT22;27217;51.220;5.308;2023-04-03T06:42:03;3.40;99.90
41481;DHT22;27217;51.220;5.308;2023-04-03T06:45:11;2.80;99.90
41481;DHT22;27217;51.220;5.308;2023-04-03T06:48:17;2.80;99.90
41481;DHT22;27217;51.220;5.308;2023-04-03T06:51:27;3.50;99.90
41481;DHT22;27217;51.220;5.308;2023-04-03T06:54:31;3.00;99.90
41481;DHT22;27217;51.220;5.308;2023-04-03T06:57:45;3.00;99.90
41481;DHT22;27217;51.220;5.308;2023-04-03T07:00:48;2.90;99.90
41481;DHT22;27217;51.220;5.308;2023-04-03T07:03:55;3.30;99.90
41481;DHT22;27217;51.220;5.308;2023-04-03T07:07:00;3.10;99.90
41481;DHT22;27217;51.220;5.308;2023-04-03T07:10:06;3.80;99.90
41481;DHT22;27217;51.220;5.308;2023-04-03T07:13:12;3.30;99.90
41481;DHT22;27217;51.220;5.308;2023-04-03T07:16:18;3.30;99.90
41481;DHT22;27217;51.220;5.308;2023-04-03T07:19:23;3.40;99.90
41481;DHT22;27217;51.220;5.308;2023-04-03T07:22:28;3.50;99.90
41481;DHT22;27217;51.220;5.308;2023-04-03T07:25:34;3.50;99.90
41481;DHT22;27217;51.220;5.308;2023-04-03T07:28:40;3.80;99.90
41481;DHT22;27217;51.220;5.308;2023-04-03T07:31:46;3.90;99.90
41481;DHT22;27217;51.220;5.308;2023-04-03T07:34:52;4.00;99.90
41481;DHT22;27217;51.220;5.308;2023-04-03T07:37:57;4.00;99.90
41481;DHT22;27217;51.220;5.308;2023-04-03T07:41:16;4.10;99.90
41481;DHT22;27217;51.220;5.308;2023-04-03T07:44:21;4.30;99.90
41481;DHT22;27217;51.220;5.308;2023-04-03T07:47:27;4.10;99.90
41481;DHT22;27217;51.220;5.308;2023-04-03T07:50:33;4.20;99.90
41481;DHT22;27217;51.220;5.308;2023-04-03T07:53:38;4.40;99.90
41481;DHT22;27217;51.220;5.308;2023-04-03T07:56:44;4.50;99.90
41481;DHT22;27217;51.220;5.308;2023-04-03T07:59:53;4.80;99.90
41481;DHT22;27217;51.220;5.308;2023-04-03T08:02:58;4.70;99.90
41481;DHT22;27217;51.220;5.308;2023-04-03T08:06:05;4.90;99.90
41481;DHT22;27217;51.220;5.308;2023-04-03T08:09:10;5.00;99.90
41481;DHT22;27217;51.220;5.308;2023-04-03T08:12:16;5.10;99.90
41481;DHT22;27217;51.220;5.308;2023-04-03T08:15:22;4.90;99.90
41481;DHT22;27217;51.220;5.308;2023-04-03T08:18:27;5.10;99.90
41481;DHT22;27217;51.220;5.308;2023-04-03T08:21:33;5.40;99.90
41481;DHT22;27217;51.220;5.308;2023-04-03T08:24:38;5.50;99.90
41481;DHT22;27217;51.220;5.308;2023-04-03T08:27:44;5.40;99.90
41481;DHT22;27217;51.220;5.308;2023-04-03T08:30:50;5.50;99.90
41481;DHT22;27217;51.220;5.308;2023-04-03T08:33:56;5.60;99.90
41481;DHT22;27217;51.220;5.308;2023-04-03T08:37:01;5.70;99.90
41481;DHT22;27217;51.220;5.308;2023-04-03T08:40:07;5.80;99.90
41481;DHT22;27217;51.220;5.308;2023-04-03T08:43:12;5.90;99.90
41481;DHT22;27217;51.220;5.308;2023-04-03T08:46:11;5.90;99.90
41481;DHT22;27217;51.220;5.308;2023-04-03T08:49:32;6.10;99.90
41481;DHT22;27217;51.220;5.308;2023-04-03T08:52:53;6.20;99.90
41481;DHT22;27217;51.220;5.308;2023-04-03T08:55:57;6.10;99.90
41481;DHT22;27217;51.220;5.308;2023-04-03T08:59:13;6.30;99.90
41481;DHT22;27217;51.220;5.308;2023-04-03T09:02:23;6.50;99.90
41481;DHT22;27217;51.220;5.308;2023-04-03T09:08:31;6.90;99.90
41481;DHT22;27217;51.220;5.308;2023-04-03T09:14:26;7.00;99.90
41481;DHT22;27217;51.220;5.308;2023-04-03T09:22:50;7.00;99.90
41481;DHT22;27217;51.220;5.308;2023-04-03T09:26:30;7.10;99.90
41481;DHT22;27217;51.220;5.308;2023-04-03T09:29:07;7.20;99.90
41481;DHT22;27217;51.220;5.308;2023-04-03T09:32:18;7.40;99.90
41481;DHT22;27217;51.220;5.308;2023-04-03T09:35:25;7.40;99.90
41481;DHT22;27217;51.220;5.308;2023-04-03T09:41:14;7.60;98.90
41481;DHT22;27217;51.220;5.308;2023-04-03T09:44:21;7.60;97.80
41481;DHT22;27217;51.220;5.308;2023-04-03T09:47:35;7.70;96.20
41481;DHT22;27217;51.220;5.308;2023-04-03T09:53:50;7.60;95.00
41481;DHT22;27217;51.220;5.308;2023-04-03T09:56:56;7.80;95.50
41481;DHT22;27217;51.220;5.308;2023-04-03T09:59:46;7.70;93.30
41481;DHT22;27217;51.220;5.308;2023-04-03T10:02:51;7.90;93.10
41481;DHT22;27217;51.220;5.308;2023-04-03T10:05:57;7.90;89.00
41481;DHT22;27217;51.220;5.308;2023-04-03T10:09:05;7.90;84.30
41481;DHT22;27217;51.220;5.308;2023-04-03T10:17:48;8.30;81.50
41481;DHT22;27217;51.220;5.308;2023-04-03T10:26:21;8.40;79.80
41481;DHT22;27217;51.220;5.308;2023-04-03T10:29:13;8.60;77.80
41481;DHT22;27217;51.220;5.308;2023-04-03T10:32:19;8.60;79.00
41481;DHT22;27217;51.220;5.308;2023-04-03T10:41:32;8.80;75.60
41481;DHT22;27217;51.220;5.308;2023-04-03T10:44:44;8.70;73.40
41481;DHT22;27217;51.220;5.308;2023-04-03T10:58:08;9.10;71.00
41481;DHT22;27217;51.220;5.308;2023-04-03T11:01:15;9.40;69.20
41481;DHT22;27217;51.220;5.308;2023-04-03T11:04:19;10.20;69.40
41481;DHT22;27217;51.220;5.308;2023-04-03T11:07:18;11.80;65.20
41481;DHT22;27217;51.220;5.308;2023-04-03T11:10:23;13.00;62.20
41481;DHT22;27217;51.220;5.308;2023-04-03T11:16:22;13.70;59.50
41481;DHT22;27217;51.220;5.308;2023-04-03T11:19:14;14.90;58.20
41481;DHT22;27217;51.220;5.308;2023-04-03T11:22:39;15.00;55.60
41481;DHT22;27217;51.220;5.308;2023-04-03T11:28:11;15.90;54.80
41481;DHT22;27217;51.220;5.308;2023-04-03T11:40:06;17.00;53.30
41481;DHT22;27217;51.220;5.308;2023-04-03T11:45:50;17.20;51.40
41481;DHT22;27217;51.220;5.308;2023-04-03T11:57:38;17.60;50.50
41481;DHT22;27217;51.220;5.308;2023-04-03T12:16:46;19.30;45.90
41481;DHT22;27217;51.220;5.308;2023-04-03T12:19:57;19.10;45.70
41481;DHT22;27217;51.220;5.308;2023-04-03T12:26:24;18.30;46.40
41481;DHT22;27217;51.220;5.308;2023-04-03T12:44:27;19.20;45.50
41481;DHT22;27217;51.220;5.308;2023-04-03T12:47:32;18.50;45.90
41481;DHT22;27217;51.220;5.308;2023-04-03T12:50:49;17.60;46.90
41481;DHT22;27217;51.220;5.308;2023-04-03T12:53:58;17.90;46.50
41481;DHT22;27217;51.220;5.308;2023-04-03T13:00:17;19.20;45.90
41481;DHT22;27217;51.220;5.308;2023-04-03T13:03:13;19.10;45.40
41481;DHT22;27217;51.220;5.308;2023-04-03T13:06:26;19.60;44.50
41481;DHT22;27217;51.220;5.308;2023-04-03T13:09:28;19.40;43.70
41481;DHT22;27217;51.220;5.308;2023-04-03T13:12:33;20.30;43.10
41481;DHT22;27217;51.220;5.308;2023-04-03T13:15:20;21.90;42.90
41481;DHT22;27217;51.220;5.308;2023-04-03T13:18:28;20.90;42.30
41481;DHT22;27217;51.220;5.308;2023-04-03T13:21:32;21.20;42.20
41481;DHT22;27217;51.220;5.308;2023-04-03T13:24:38;20.70;42.20
41481;DHT22;27217;51.220;5.308;2023-04-03T13:27:44;20.70;41.60
41481;DHT22;27217;51.220;5.308;2023-04-03T13:30:57;20.10;43.00
41481;DHT22;27217;51.220;5.308;2023-04-03T13:34:20;19.90;43.50
41481;DHT22;27217;51.220;5.308;2023-04-03T13:39:42;20.10;42.90
41481;DHT22;27217;51.220;5.308;2023-04-03T13:42:58;19.60;43.50
41481;DHT22;27217;51.220;5.308;2023-04-03T13:48:43;21.00;41.50
41481;DHT22;27217;51.220;5.308;2023-04-03T13:51:48;20.20;42.40
41481;DHT22;27217;51.220;5.308;2023-04-03T13:54:58;20.80;43.10
41481;DHT22;27217;51.220;5.308;2023-04-03T14:04:01;21.00;42.10
41481;DHT22;27217;51.220;5.308;2023-04-03T14:07:05;22.10;41.20
41481;DHT22;27217;51.220;5.308;2023-04-03T14:10:11;21.20;41.70
41481;DHT22;27217;51.220;5.308;2023-04-03T14:13:18;21.10;41.90
41481;DHT22;27217;51.220;5.308;2023-04-03T14:16:24;20.70;42.60
41481;DHT22;27217;51.220;5.308;2023-04-03T14:19:30;21.40;42.40
41481;DHT22;27217;51.220;5.308;2023-04-03T14:22:34;21.90;41.40
41481;DHT22;27217;51.220;5.308;2023-04-03T14:25:40;22.20;41.40
41481;DHT22;27217;51.220;5.308;2023-04-03T14:28:48;21.60;42.10
41481;DHT22;27217;51.220;5.308;2023-04-03T14:31:53;22.30;41.30
41481;DHT22;27217;51.220;5.308;2023-04-03T14:34:59;22.40;41.30
41481;DHT22;27217;51.220;5.308;2023-04-03T14:38:05;21.90;42.50
41481;DHT22;27217;51.220;5.308;2023-04-03T14:41:12;22.00;42.30
41481;DHT22;27217;51.220;5.308;2023-04-03T14:44:16;22.70;41.90
41481;DHT22;27217;51.220;5.308;2023-04-03T14:47:25;22.70;41.60
